Accueil
METAR-TAF:

METAR-TAF

Aéroports :

Aéroport régional de Jizan

Jizan, Arabie saoudite

latitude: 16-54N, longitude: 042-35E, altitude: 6 m

Observation

Le bulletin a été fait il y a 59 minutes, à 00:00 UTC
Vent calme
Température 23°C
Humidité 73%
Pression 1018 hPa
Visibilité 10 km ou plus
pas de nuages en-dessous de 1500 mètres et pas de cumulonimbus.

METAR: OEGN 270000Z 00000KT CAVOK 23/18 Q1018 NOSIG

Heure: 03:59 (00:59 UTC)

Prévision

Le bulletin a été fait il y a 1 heure et 59 minutes, à 23:00 UTC
Prévision valable du 27 à 00 UTC au 28 à 06 UTC
Vent 3 kt de direction variable
Visibilité: 6000 m
Quelques nuages à une hauteur de 3000 ft
Nuages épars à une hauteur de 10000 ft
Evoluant progressivement
du 27 à 06 UTC au 27 à 08 UTC
Vent 14 kt de ouest

TAF: OEGN 262300Z 2700/2806 VRB03KT 6000 FEW030 SCT100 BECMG 2706/2708 27014KT

Observations et prévisions météorologiques de plus de 4000 aéroports (messages METAR et TAF).

Les stations disponibles sont représentées par des disques jaunes et rouges sur la carte.

Passer la souris dessus pour voir le nom de la station.

Cliquer dessus pour voir les observations et prévisions météorologiques.

Pour changer de carte: cliquez sur les boutons verts avec une croix noire pour zoomer, sur le bouton vert avec un tiret pour effectuer un zoom arrière, ou sur les flèches vertes pour les cartes adjacentes.


METAR-TAF: